Wednesday, February 22, 2017, 12:29 PM EST
Back to Local

KMPO, Mt Pocono Pocono Mountains

Location: Pocono Summit, PA, United States Lat: 41.133
Local Time: 12:29 PM EST (17:29 GMT) Lon: -75.383
Time Zone: US/Eastern Elev: 1915 ft

Show me the last for .
Show Decoded

2017-02-22 11:53 METAR KMPO 221653Z AUTO 00000KT 10SM OVC080 07/04 A2993 RMK AO2 RAB1557E28
                 SLP147 P0000 T00720039 =
2017-02-22 10:53 METAR KMPO 221553Z AUTO 26003KT 10SM BKN070 OVC085 08/03 A2996 RMK AO2 SLP155
                 T00780028 =
2017-02-22 09:53 METAR KMPO 221453Z AUTO 30004KT 10SM BKN075 OVC090 06/02 A2997 RMK AO2 RAE18
                 SLP160 P0000 60000 T00610017 58003 =
2017-02-22 08:53 METAR KMPO 221353Z AUTO 30005KT 10SM -RA BKN065 OVC080 04/01 A2998 RMK AO2 RAB31
                 SLP166 P0000 T00440011 =
2017-02-22 07:53 METAR KMPO 221253Z AUTO 31005KT 10SM SCT075 OVC095 04/01 A2997 RMK AO2 SLP165
                 T00390006 =
2017-02-22 06:53 METAR KMPO 221153Z AUTO 30005KT 10SM BKN065 BKN080 OVC120 03/01 A2997 RMK AO2
                 SLP165 T00330006 10033 20028 58001 =
2017-02-22 05:53 METAR KMPO 221053Z AUTO 28005KT 10SM FEW070 SCT095 OVC120 03/01 A2998 RMK AO2
                 SLP167 T00330006 =
2017-02-22 04:53 METAR KMPO 220953Z AUTO 27004KT 10SM FEW036 OVC100 03/00 A2998 RMK AO2 SLP166
                 T00280000 =
2017-02-21 15:53 METAR KMPO 212053Z AUTO 18007KT 10SM CLR 04/M04 A3011 RMK AO2 SLP216 T00391044
                 56024 =
2017-02-21 14:53 METAR KMPO 211953Z AUTO 20009KT 10SM CLR 04/M04 A3015 RMK AO2 SLP226 T00441039 =
2017-02-21 13:53 METAR KMPO 211853Z AUTO 18010KT 10SM CLR 03/M04 A3016 RMK AO2 SLP230 T00331044 =
2017-02-21 12:53 METAR KMPO 211753Z AUTO 18012KT 10SM CLR 03/M05 A3019 RMK AO2 SLP244 T00281050
                 10033 21039 58023 =

Support USWX by starting your Amazon purchase here.